createdAt,value
2022-11-08T00:02:14.107Z,13.10
2022-11-08T00:05:58.455Z,13.00
2022-11-08T00:09:43.923Z,13.20
2022-11-08T00:13:28.251Z,12.70
2022-11-08T00:16:55.114Z,18.20
2022-11-08T00:20:22.484Z,16.10
2022-11-08T00:23:49.792Z,15.60
2022-11-08T00:27:18.922Z,17.00
2022-11-08T00:30:45.518Z,16.50
2022-11-08T00:34:14.986Z,16.00
2022-11-08T00:37:42.030Z,14.30
2022-11-08T00:41:08.995Z,15.80
2022-11-08T00:44:36.015Z,14.00
2022-11-08T00:48:02.998Z,13.30
2022-11-08T00:51:29.860Z,12.20
2022-11-08T00:54:57.024Z,13.20
2022-11-08T00:58:27.841Z,13.20
2022-11-08T01:01:55.306Z,11.60
2022-11-08T01:05:22.081Z,11.30
2022-11-08T01:08:50.159Z,10.90
2022-11-08T01:12:17.419Z,11.10
2022-11-08T01:15:46.632Z,11.60
2022-11-08T01:19:16.006Z,10.90
2022-11-08T01:22:43.164Z,10.20
2022-11-08T01:26:13.045Z,11.50
2022-11-08T01:29:39.736Z,10.80
2022-11-08T01:33:06.889Z,11.00
2022-11-08T01:36:34.165Z,12.10
2022-11-08T01:40:01.577Z,13.70
2022-11-08T01:43:41.606Z,14.90
2022-11-08T01:47:08.227Z,14.30
2022-11-08T01:50:35.478Z,12.70
2022-11-08T01:54:05.959Z,11.20
2022-11-08T01:57:37.367Z,9.60
2022-11-08T02:01:05.747Z,9.60
2022-11-08T02:04:33.468Z,9.90
2022-11-08T02:08:04.419Z,13.90
2022-11-08T02:11:32.174Z,12.50
2022-11-08T02:14:58.936Z,11.00
2022-11-08T02:18:30.252Z,11.30
2022-11-08T02:22:01.964Z,10.10
2022-11-08T02:25:30.101Z,10.00
2022-11-08T02:28:56.980Z,9.50
2022-11-08T02:32:24.739Z,10.10
2022-11-08T02:35:55.654Z,9.50
2022-11-08T02:39:23.171Z,9.60
2022-11-08T02:42:50.270Z,10.10
2022-11-08T02:46:17.229Z,10.20
2022-11-08T02:49:44.492Z,10.80
2022-11-08T02:53:12.315Z,9.90
2022-11-08T02:56:39.138Z,9.80
2022-11-08T03:00:06.197Z,11.00
2022-11-08T03:03:34.348Z,8.90
2022-11-08T03:07:00.930Z,8.90
2022-11-08T03:10:29.975Z,9.20
2022-11-08T03:13:57.256Z,8.60
2022-11-08T03:17:25.079Z,9.00
2022-11-08T03:20:51.861Z,8.60
2022-11-08T03:24:18.677Z,8.20
2022-11-08T03:27:46.408Z,8.70
2022-11-08T03:31:14.016Z,8.10
2022-11-08T03:34:41.381Z,7.60
2022-11-08T03:38:08.943Z,8.40
2022-11-08T03:41:35.954Z,7.70
2022-11-08T03:45:02.741Z,7.70
2022-11-08T03:48:30.239Z,7.40
2022-11-08T03:51:58.123Z,7.40
2022-11-08T03:55:27.184Z,7.40
2022-11-08T03:58:57.174Z,7.90
2022-11-08T04:02:24.777Z,7.80
2022-11-08T04:05:53.202Z,7.30
2022-11-08T04:09:21.649Z,7.40
2022-11-08T04:13:12.074Z,7.60
2022-11-08T04:16:38.950Z,6.80
2022-11-08T04:20:24.328Z,6.70
2022-11-08T04:23:52.680Z,6.50
2022-11-08T04:27:19.672Z,6.50
2022-11-08T04:30:52.761Z,7.20
2022-11-08T04:34:19.299Z,6.80
2022-11-08T04:37:46.156Z,6.70
2022-11-08T04:41:15.458Z,7.00
2022-11-08T04:44:42.160Z,6.10
2022-11-08T04:48:09.529Z,6.10
2022-11-08T04:51:36.775Z,6.40
2022-11-08T04:55:03.538Z,6.10
2022-11-08T04:58:30.686Z,6.40
2022-11-08T05:01:57.956Z,6.10
2022-11-08T05:05:25.605Z,7.30
2022-11-08T05:08:53.092Z,6.70
2022-11-08T05:12:19.777Z,6.20
2022-11-08T05:15:46.440Z,7.00
2022-11-08T05:19:13.524Z,7.40
2022-11-08T05:22:58.497Z,6.20
2022-11-08T05:26:25.809Z,6.60
2022-11-08T05:29:52.842Z,6.40
2022-11-08T05:33:19.654Z,5.80
2022-11-08T05:36:46.807Z,6.30
2022-11-08T05:40:15.064Z,6.00
2022-11-08T05:43:42.136Z,6.00
2022-11-08T05:47:09.257Z,6.20
2022-11-08T05:50:37.660Z,6.70
2022-11-08T05:54:13.349Z,6.90
2022-11-08T05:57:45.646Z,6.90
2022-11-08T06:01:14.590Z,7.40
2022-11-08T06:04:41.413Z,7.60
2022-11-08T06:08:08.371Z,7.40
2022-11-08T06:11:35.372Z,8.70
2022-11-08T06:15:04.528Z,11.10
2022-11-08T06:18:31.215Z,10.70
2022-11-08T06:21:58.399Z,9.00
2022-11-08T06:25:25.184Z,8.00
2022-11-08T06:28:51.968Z,7.50
2022-11-08T06:32:18.638Z,7.50
2022-11-08T06:35:45.321Z,8.60
2022-11-08T06:39:12.755Z,8.70
2022-11-08T06:42:39.361Z,7.50
2022-11-08T06:46:06.493Z,7.10
2022-11-08T06:49:33.441Z,6.80
2022-11-08T06:53:01.347Z,7.80
2022-11-08T06:56:28.748Z,7.10
2022-11-08T06:59:56.040Z,6.40
2022-11-08T07:03:22.976Z,6.70
2022-11-08T07:06:50.205Z,8.00
2022-11-08T07:10:22.009Z,7.80
2022-11-08T07:13:49.378Z,7.50
2022-11-08T07:17:18.621Z,7.80
2022-11-08T07:20:45.627Z,7.30
2022-11-08T07:24:12.313Z,7.80
2022-11-08T07:27:39.017Z,7.70
2022-11-08T07:31:08.253Z,6.60
2022-11-08T07:34:36.721Z,7.00
2022-11-08T07:38:05.630Z,6.60
2022-11-08T07:41:32.661Z,7.50
2022-11-08T07:45:00.160Z,7.50
2022-11-08T07:48:28.211Z,6.70
2022-11-08T07:51:56.029Z,6.40
2022-11-08T07:55:22.959Z,7.20
2022-11-08T07:58:50.525Z,6.90
2022-11-08T08:02:17.475Z,6.10
2022-11-08T08:05:46.754Z,7.00
2022-11-08T08:09:14.012Z,6.70
2022-11-08T08:12:40.815Z,6.60
2022-11-08T08:16:08.399Z,6.40
2022-11-08T08:19:36.103Z,6.70
2022-11-08T08:23:03.281Z,6.50
2022-11-08T08:26:30.848Z,6.60
2022-11-08T08:29:57.689Z,7.10
2022-11-08T08:33:29.086Z,6.40
2022-11-08T08:36:58.166Z,6.90
2022-11-08T08:40:25.036Z,6.50
2022-11-08T08:43:51.379Z,6.00
2022-11-08T08:47:19.667Z,6.60
2022-11-08T08:50:46.169Z,6.80
2022-11-08T08:54:15.029Z,6.40
2022-11-08T08:57:44.894Z,6.40
2022-11-08T09:05:00.400Z,6.10
2022-11-08T09:08:42.986Z,6.70
2022-11-08T09:12:13.549Z,6.80
2022-11-08T09:15:41.505Z,6.50
2022-11-08T09:19:08.188Z,7.20
2022-11-08T09:22:37.225Z,6.60
2022-11-08T09:26:04.950Z,6.10
2022-11-08T09:29:31.262Z,5.80
2022-11-08T09:33:01.296Z,6.40
2022-11-08T09:36:28.733Z,5.30
2022-11-08T09:39:57.073Z,6.30
2022-11-08T09:43:48.753Z,6.20
2022-11-08T09:47:21.148Z,5.60
2022-11-08T09:50:49.392Z,5.20
2022-11-08T09:54:22.724Z,5.80
2022-11-08T09:58:00.656Z,4.90
2022-11-08T10:01:27.756Z,5.40
2022-11-08T10:04:58.574Z,5.00
2022-11-08T10:08:32.037Z,6.00
2022-11-08T10:12:11.176Z,5.00
2022-11-08T10:15:48.376Z,5.20
2022-11-08T10:19:54.753Z,5.10
2022-11-08T10:23:34.033Z,4.40
2022-11-08T10:27:14.361Z,4.50
2022-11-08T10:30:46.795Z,4.20
2022-11-08T10:34:20.027Z,4.90
2022-11-08T10:37:53.637Z,4.80
2022-11-08T10:41:29.841Z,5.30
2022-11-08T10:45:05.277Z,5.00
2022-11-08T10:48:40.660Z,4.70
2022-11-08T10:52:24.571Z,4.60
2022-11-08T10:55:53.713Z,4.80
2022-11-08T10:59:32.503Z,4.70
2022-11-08T11:03:01.603Z,5.40
2022-11-08T11:06:31.411Z,4.70
2022-11-08T11:09:58.474Z,4.50
2022-11-08T11:17:02.738Z,4.90
2022-11-08T11:20:30.029Z,4.30
2022-11-08T11:24:00.325Z,4.00
2022-11-08T11:27:31.399Z,4.50
2022-11-08T11:31:03.015Z,3.80
2022-11-08T11:34:54.046Z,4.80
2022-11-08T11:38:31.770Z,3.90
2022-11-08T11:42:18.086Z,4.20
2022-11-08T11:49:23.325Z,4.10
2022-11-08T11:52:50.579Z,4.20
2022-11-08T11:56:42.109Z,4.30
2022-11-08T12:00:14.657Z,4.60
2022-11-08T12:03:57.921Z,4.60
2022-11-08T12:07:28.152Z,4.10
2022-11-08T12:11:13.201Z,4.20
2022-11-08T12:14:56.406Z,4.10
2022-11-08T12:18:44.006Z,4.70
2022-11-08T12:22:34.814Z,3.90
2022-11-08T12:26:12.728Z,4.30
2022-11-08T12:29:50.093Z,4.20
2022-11-08T12:33:36.020Z,4.00
2022-11-08T12:37:14.911Z,4.40
2022-11-08T12:40:56.881Z,3.60
2022-11-08T12:44:56.682Z,3.30
2022-11-08T12:48:35.387Z,3.70
2022-11-08T12:52:20.761Z,3.40
2022-11-08T12:55:52.528Z,4.20
2022-11-08T12:59:24.341Z,4.00
2022-11-08T13:03:03.596Z,3.80
2022-11-08T13:06:36.353Z,3.40
2022-11-08T13:10:12.260Z,4.00
2022-11-08T13:13:50.210Z,3.30
2022-11-08T13:17:25.080Z,3.40
2022-11-08T13:20:52.828Z,3.20
2022-11-08T13:24:45.581Z,4.90
2022-11-08T13:28:46.672Z,3.60
2022-11-08T13:32:22.002Z,3.60
2022-11-08T13:35:59.916Z,3.30
2022-11-08T13:39:48.854Z,5.00
2022-11-08T13:43:29.698Z,5.30
2022-11-08T13:46:56.911Z,8.60
2022-11-08T13:50:53.011Z,7.70
2022-11-08T13:54:49.045Z,12.20
2022-11-08T13:58:34.927Z,12.00
2022-11-08T14:02:04.648Z,8.40
2022-11-08T14:05:33.470Z,9.00
2022-11-08T14:09:09.290Z,11.10
2022-11-08T14:12:44.139Z,12.10
2022-11-08T14:16:19.692Z,10.50
2022-11-08T14:19:48.777Z,13.00
2022-11-08T14:23:24.287Z,10.90
2022-11-08T14:26:51.446Z,10.00
2022-11-08T14:30:24.577Z,12.50
2022-11-08T14:37:25.858Z,12.10
2022-11-08T14:41:00.171Z,10.40
2022-11-08T14:44:28.666Z,10.50
2022-11-08T14:48:01.423Z,11.60
2022-11-08T14:55:04.468Z,12.10
2022-11-08T14:58:32.404Z,10.70
2022-11-08T15:02:00.636Z,11.80
2022-11-08T15:05:37.739Z,12.30
2022-11-08T15:09:07.371Z,13.20
2022-11-08T15:12:37.781Z,12.50
2022-11-08T15:16:09.694Z,13.50
2022-11-08T15:19:42.741Z,14.30
2022-11-08T15:23:27.313Z,14.00
2022-11-08T15:27:08.939Z,14.10
2022-11-08T15:30:44.097Z,15.00
2022-11-08T15:34:23.601Z,14.60
2022-11-08T15:38:01.098Z,14.10
2022-11-08T15:41:34.927Z,15.10
2022-11-08T15:45:05.089Z,16.50
2022-11-08T15:48:33.607Z,17.40
2022-11-08T15:52:00.914Z,18.10
2022-11-08T15:55:31.737Z,18.10
2022-11-08T15:58:58.199Z,25.00
2022-11-08T16:02:28.307Z,29.30
2022-11-08T16:05:59.576Z,27.30
2022-11-08T16:09:26.450Z,26.80
2022-11-08T16:12:54.586Z,27.90
2022-11-08T16:16:24.715Z,29.20
2022-11-08T16:19:51.703Z,29.50
2022-11-08T16:23:20.657Z,28.40
2022-11-08T16:26:50.355Z,25.50
2022-11-08T16:30:22.766Z,20.70
2022-11-08T16:33:51.726Z,20.50
2022-11-08T16:37:19.611Z,22.60
2022-11-08T16:40:47.240Z,25.20
2022-11-08T16:44:18.662Z,27.10
2022-11-08T16:47:54.490Z,42.50
2022-11-08T16:51:23.067Z,55.40
2022-11-08T16:54:52.777Z,62.00
2022-11-08T16:58:21.343Z,55.70
2022-11-08T17:01:49.771Z,53.60
2022-11-08T17:05:21.501Z,44.20
2022-11-08T17:08:48.683Z,44.60
2022-11-08T17:12:30.220Z,41.90
2022-11-08T17:15:58.422Z,40.30
2022-11-08T17:19:25.265Z,35.40
2022-11-08T17:22:53.028Z,33.20
2022-11-08T17:26:21.175Z,30.80
2022-11-08T17:29:48.096Z,32.70
2022-11-08T17:33:16.203Z,31.80
2022-11-08T17:36:43.866Z,32.10
2022-11-08T17:40:15.431Z,31.70
2022-11-08T17:43:42.529Z,33.50
2022-11-08T17:47:12.212Z,31.00
2022-11-08T17:50:39.972Z,31.00
2022-11-08T17:54:08.016Z,31.10
2022-11-08T17:57:36.221Z,32.60
2022-11-08T18:01:05.395Z,32.60
2022-11-08T18:04:32.573Z,35.20
2022-11-08T18:07:59.417Z,41.00
2022-11-08T18:11:29.903Z,36.20
2022-11-08T18:14:57.984Z,33.50
2022-11-08T18:18:24.757Z,33.00
2022-11-08T18:21:52.011Z,42.20
2022-11-08T18:25:19.610Z,54.20
2022-11-08T18:28:49.009Z,50.20
2022-11-08T18:32:17.322Z,43.50
2022-11-08T18:35:44.981Z,37.80
2022-11-08T18:42:52.695Z,29.10
2022-11-08T18:46:22.918Z,21.50
2022-11-08T18:49:49.894Z,19.80
2022-11-08T18:53:17.988Z,22.40
2022-11-08T18:56:44.813Z,35.30
2022-11-08T19:00:15.018Z,44.40
2022-11-08T19:03:41.949Z,38.70
2022-11-08T19:07:09.803Z,35.30
2022-11-08T19:10:38.779Z,51.10
2022-11-08T19:14:05.840Z,48.30
2022-11-08T19:17:35.485Z,35.90
2022-11-08T19:21:05.387Z,26.40
2022-11-08T19:24:32.053Z,27.30
2022-11-08T19:27:59.537Z,26.40
2022-11-08T19:31:27.481Z,24.20
2022-11-08T19:34:54.792Z,25.10
2022-11-08T19:38:22.814Z,27.30
2022-11-08T19:41:49.851Z,28.30
2022-11-08T19:45:19.558Z,28.60
2022-11-08T19:48:51.325Z,29.10
2022-11-08T19:52:23.616Z,31.30
2022-11-08T19:56:03.147Z,28.30
2022-11-08T19:59:33.171Z,28.60
2022-11-08T20:03:02.776Z,29.20
2022-11-08T20:06:34.301Z,30.20
2022-11-08T20:10:09.328Z,29.60
2022-11-08T20:13:36.886Z,29.10
2022-11-08T20:17:04.158Z,26.30
2022-11-08T20:20:32.600Z,24.70
2022-11-08T20:24:02.317Z,24.80
2022-11-08T20:27:36.780Z,24.50
2022-11-08T20:31:11.997Z,23.80
2022-11-08T20:34:41.679Z,21.40
2022-11-08T20:38:09.224Z,21.80
2022-11-08T20:41:39.433Z,18.70
2022-11-08T20:45:14.730Z,18.00
2022-11-08T20:48:50.668Z,17.10
2022-11-08T20:52:25.150Z,17.10
2022-11-08T20:56:00.802Z,17.40
2022-11-08T20:59:28.243Z,17.50
2022-11-08T21:02:55.956Z,17.20
2022-11-08T21:06:35.557Z,17.70
2022-11-08T21:10:35.930Z,17.60
2022-11-08T21:13:57.400Z,19.40
2022-11-08T21:17:25.996Z,19.00
2022-11-08T21:21:02.990Z,22.90
2022-11-08T21:24:37.345Z,23.30
2022-11-08T21:28:09.486Z,22.00
2022-11-08T21:31:37.410Z,22.50
2022-11-08T21:35:05.098Z,23.90
2022-11-08T21:38:35.154Z,21.80
2022-11-08T21:42:05.817Z,25.30
2022-11-08T21:45:36.511Z,23.90
2022-11-08T21:49:10.793Z,24.90
2022-11-08T21:52:38.192Z,24.00
2022-11-08T21:56:09.307Z,22.30
2022-11-08T21:59:36.416Z,19.90
2022-11-08T22:03:03.205Z,19.20
2022-11-08T22:06:31.976Z,18.10
2022-11-08T22:09:59.399Z,19.00
2022-11-08T22:13:25.948Z,18.80
2022-11-08T22:16:53.941Z,19.90
2022-11-08T22:20:20.789Z,18.60
2022-11-08T22:23:48.325Z,19.10
2022-11-08T22:27:15.307Z,18.30
2022-11-08T22:30:43.107Z,19.00
2022-11-08T22:34:12.276Z,18.70
2022-11-08T22:37:39.638Z,20.70
2022-11-08T22:41:09.768Z,19.30
2022-11-08T22:44:36.791Z,20.50
2022-11-08T22:48:03.740Z,19.90
2022-11-08T22:51:34.341Z,21.10
2022-11-08T22:55:01.142Z,20.70
2022-11-08T22:58:28.927Z,22.60
2022-11-08T23:01:57.448Z,21.30
2022-11-08T23:05:25.484Z,20.30
2022-11-08T23:08:53.211Z,19.40
2022-11-08T23:12:40.331Z,19.90
2022-11-08T23:16:28.824Z,19.50
2022-11-08T23:20:15.792Z,21.00
2022-11-08T23:24:05.747Z,21.60
2022-11-08T23:27:51.557Z,23.40
2022-11-08T23:31:38.473Z,24.50
2022-11-08T23:35:12.391Z,25.90
2022-11-08T23:38:41.766Z,25.70
2022-11-08T23:42:26.922Z,24.40
2022-11-08T23:45:55.965Z,24.00
2022-11-08T23:49:23.969Z,24.20
2022-11-08T23:52:53.080Z,23.30
2022-11-08T23:56:25.022Z,22.50
2022-11-08T23:59:52.430Z,21.40
